TAF LFMD
LFMD 270800Z 2709/2809 29010KT 9999 BKN100 PROB40 TEMPO 2709/2712 SHRA SCT050CB TEMPO 2805/2809 29015G25KT=
METAR LFMD
LFMD 270830Z AUTO 30010KT 250V340 9999 BKN100 BKN120 11/02 Q0995 TEMPO RA BKN040TCU=
LFMD 270800Z AUTO 27004KT 230V340 CAVOK 10/02 Q0995 TEMPO 26020G30KT RA BKN040TCU=
LFMD 270730Z AUTO 30009KT 270V340 CAVOK 10/01 Q0995 TEMPO 26020G30KT RA BKN040TCU=
LFMD 270700Z AUTO 30010KT 270V340 9999 FEW086 10/00 Q0995 TEMPO 26020G30KT RA BKN040TCU=
LFMD 270630Z AUTO 30012KT 270V350 9999 SCT086 10/M00 Q0995 TEMPO 26020G30KT RA BKN040TCU=
WC LFMD
WS LFMD
WV LFMD